Aeroporto :
LOGIN :

Iscrizione | Disclaimer

   EN    FR    IT 

 










Sommario :    VFR   VFR Marginale   IFR   IFR Intensivo   IFR Molto Intensivo
Visibilità : 
Base nubi : 
>= 8 km
>= 3000ft
5 / 8 km
1000 / 3000 ft
1500m / 5 km
500 / 1000 ft
800 / 1500m
200 / 500 ft
< 800m
< 200 ft
Simboli :   Temporali  Nebbia  Neve Forte  Precipitazioni Forti  Vento > 20 kt
SIGMETs :   Varie  Temporali  Ghiacco  Turbolenza  Onda orograficha  Ceneri Vulcaniche






- Altitudine del aeroporto : 203 ft
- Codice IATA : XMJ


LFBM - Mont-De-Marsan

ULTIMO METAR :
  • 150730Z AUTO 17007KT 140V210 6000 +RA SCT014/// BKN033/// BKN045/// ///CB 06/05 Q0997 TEMPO 23015G25KT 4000 SHRA

METARs OBSOLETI :
  • 150700Z AUTO 16008KT 120V190 9999 -RA FEW026/// BKN034/// BKN048/// ///CB 06/05 Q0997 TEMPO 23015G25KT 4000 SHRA
  • 150630Z AUTO 16007KT 130V200 9999 -RA FEW013/// SCT024/// OVC033/// ///CB 06/05 Q0997 TEMPO 23015G25KT 4000 SHRA
  • 150600Z AUTO 15005KT 110V180 5000 +RA BR BKN024/// OVC031/// ///CB 05/05 Q0997 TEMPO 23015G25KT 2000 BR BKN006 BKN012
  • 150530Z AUTO VRB03KT 5000 RA BR FEW021/// BKN032/// BKN044/// ///CB 06/05 Q0997 TEMPO 23015G25KT 2000 BR BKN006 BKN012
  • 150500Z AUTO 00000KT 8000 -RA FEW027/// OVC035/// ///CB 06/05 Q0998 TEMPO 23015G25KT 2000 BR BKN006 BKN012

TAF TAF LFBM
Valido dal 15 a 03 ore il 16 a 03 ore UTC


150200Z 1503/1603 24005KT 9999 SCT012 BKN020
TEMPO 1503/1515 23015G25KT 4000 SHRA BKN015 BKN030CB
PROB40
TEMPO 1503/1507 2000 BR BKN006 BKN012
BECMG 1519/1521 BKN006
TEMPO 1523/1603 0600 FG OVC004



MetMap, La meteo Aeronautica in un colpo d'occhio ! - Copyright ORBIFLY Dicembre 2007 - Disclaimer

ORBIFLY MET'MAP TEAM :

Programmazione e sviluppo : Alexandra Zaïnal
Concezione e sviluppo : Baudouin d'Aumeries
Co-Programmazione e sviluppo : Marc-Olivier Méhu
Supporto tecnico e logistico : Manuel Goepfert
Aiuto per la traduzione : Arnaldo La Scala

Contatto : metmap@orbifly.com




FONTI E CREDITI :

   NOAA